sensor_id;sensor_type;location;lat;lon;timestamp;P1;durP1;ratioP1;P2;durP2;ratioP2
19965;SDS011;10144;50.874;4.762;2023-08-08T00:02:13;10.00;;;3.15;;
19965;SDS011;10144;50.874;4.762;2023-08-08T00:04:41;9.90;;;3.20;;
19965;SDS011;10144;50.874;4.762;2023-08-08T00:07:07;6.80;;;2.75;;
19965;SDS011;10144;50.874;4.762;2023-08-08T00:09:33;11.10;;;2.97;;
19965;SDS011;10144;50.874;4.762;2023-08-08T00:11:58;10.18;;;3.00;;
19965;SDS011;10144;50.874;4.762;2023-08-08T00:14:24;11.27;;;2.85;;
19965;SDS011;10144;50.874;4.762;2023-08-08T00:16:56;6.63;;;2.50;;
19965;SDS011;10144;50.874;4.762;2023-08-08T00:19:22;8.88;;;3.00;;
19965;SDS011;10144;50.874;4.762;2023-08-08T00:24:35;14.48;;;3.15;;
19965;SDS011;10144;50.874;4.762;2023-08-08T00:27:01;10.30;;;3.08;;
19965;SDS011;10144;50.874;4.762;2023-08-08T00:29:30;12.13;;;3.25;;
19965;SDS011;10144;50.874;4.762;2023-08-08T00:31:56;8.18;;;3.30;;
19965;SDS011;10144;50.874;4.762;2023-08-08T00:34:23;9.13;;;3.40;;
19965;SDS011;10144;50.874;4.762;2023-08-08T00:36:48;7.25;;;2.92;;
19965;SDS011;10144;50.874;4.762;2023-08-08T00:39:14;9.13;;;3.10;;
19965;SDS011;10144;50.874;4.762;2023-08-08T00:41:40;7.68;;;2.97;;
19965;SDS011;10144;50.874;4.762;2023-08-08T00:44:07;10.63;;;3.20;;
19965;SDS011;10144;50.874;4.762;2023-08-08T00:46:32;8.48;;;3.30;;
19965;SDS011;10144;50.874;4.762;2023-08-08T00:48:58;12.32;;;3.40;;
19965;SDS011;10144;50.874;4.762;2023-08-08T00:53:55;10.55;;;3.13;;
19965;SDS011;10144;50.874;4.762;2023-08-08T00:56:21;11.18;;;3.28;;
19965;SDS011;10144;50.874;4.762;2023-08-08T01:01:16;11.80;;;3.00;;
19965;SDS011;10144;50.874;4.762;2023-08-08T01:03:43;10.82;;;2.95;;
19965;SDS011;10144;50.874;4.762;2023-08-08T01:09:04;9.02;;;3.08;;
19965;SDS011;10144;50.874;4.762;2023-08-08T01:11:35;9.30;;;3.35;;
19965;SDS011;10144;50.874;4.762;2023-08-08T01:14:08;15.38;;;3.70;;
19965;SDS011;10144;50.874;4.762;2023-08-08T01:16:35;9.25;;;3.30;;
19965;SDS011;10144;50.874;4.762;2023-08-08T01:19:04;10.13;;;3.03;;
19965;SDS011;10144;50.874;4.762;2023-08-08T01:21:31;13.77;;;3.83;;
19965;SDS011;10144;50.874;4.762;2023-08-08T01:26:36;12.52;;;3.50;;
19965;SDS011;10144;50.874;4.762;2023-08-08T01:29:04;10.27;;;3.42;;
19965;SDS011;10144;50.874;4.762;2023-08-08T01:31:30;9.93;;;3.15;;
19965;SDS011;10144;50.874;4.762;2023-08-08T01:33:59;8.43;;;3.35;;
19965;SDS011;10144;50.874;4.762;2023-08-08T01:36:27;18.98;;;3.40;;
19965;SDS011;10144;50.874;4.762;2023-08-08T01:38:59;14.57;;;3.70;;
19965;SDS011;10144;50.874;4.762;2023-08-08T01:41:35;15.63;;;3.65;;
19965;SDS011;10144;50.874;4.762;2023-08-08T01:44:04;10.23;;;3.63;;
19965;SDS011;10144;50.874;4.762;2023-08-08T01:46:31;10.98;;;3.50;;
19965;SDS011;10144;50.874;4.762;2023-08-08T01:48:58;12.15;;;3.63;;
19965;SDS011;10144;50.874;4.762;2023-08-08T01:51:33;18.73;;;4.05;;
19965;SDS011;10144;50.874;4.762;2023-08-08T01:54:00;15.30;;;4.03;;
19965;SDS011;10144;50.874;4.762;2023-08-08T01:56:26;14.05;;;3.95;;
19965;SDS011;10144;50.874;4.762;2023-08-08T01:58:55;20.13;;;4.05;;
19965;SDS011;10144;50.874;4.762;2023-08-08T02:01:21;11.32;;;3.78;;
19965;SDS011;10144;50.874;4.762;2023-08-08T02:03:48;10.30;;;3.53;;
19965;SDS011;10144;50.874;4.762;2023-08-08T02:06:14;15.45;;;3.88;;
19965;SDS011;10144;50.874;4.762;2023-08-08T02:08:43;16.95;;;3.80;;
19965;SDS011;10144;50.874;4.762;2023-08-08T02:11:11;16.90;;;4.00;;
19965;SDS011;10144;50.874;4.762;2023-08-08T02:13:37;18.17;;;3.75;;
19965;SDS011;10144;50.874;4.762;2023-08-08T02:16:05;14.77;;;3.88;;
19965;SDS011;10144;50.874;4.762;2023-08-08T02:18:32;11.80;;;3.85;;
19965;SDS011;10144;50.874;4.762;2023-08-08T02:20:59;16.42;;;3.92;;
19965;SDS011;10144;50.874;4.762;2023-08-08T02:23:25;15.02;;;4.03;;
19965;SDS011;10144;50.874;4.762;2023-08-08T02:25:51;20.23;;;3.67;;
19965;SDS011;10144;50.874;4.762;2023-08-08T02:28:18;13.30;;;4.05;;
19965;SDS011;10144;50.874;4.762;2023-08-08T02:30:44;15.30;;;4.80;;
19965;SDS011;10144;50.874;4.762;2023-08-08T02:33:15;16.08;;;3.75;;
19965;SDS011;10144;50.874;4.762;2023-08-08T02:35:47;19.58;;;4.47;;
19965;SDS011;10144;50.874;4.762;2023-08-08T02:38:13;15.55;;;4.13;;
19965;SDS011;10144;50.874;4.762;2023-08-08T02:40:40;18.60;;;4.13;;
19965;SDS011;10144;50.874;4.762;2023-08-08T02:43:07;10.90;;;4.13;;
19965;SDS011;10144;50.874;4.762;2023-08-08T02:45:35;11.10;;;3.80;;
19965;SDS011;10144;50.874;4.762;2023-08-08T02:48:02;15.25;;;4.50;;
19965;SDS011;10144;50.874;4.762;2023-08-08T02:50:28;18.40;;;4.35;;
19965;SDS011;10144;50.874;4.762;2023-08-08T02:52:56;16.48;;;3.85;;
19965;SDS011;10144;50.874;4.762;2023-08-08T02:55:21;16.40;;;4.13;;
19965;SDS011;10144;50.874;4.762;2023-08-08T02:57:53;18.48;;;4.75;;
19965;SDS011;10144;50.874;4.762;2023-08-08T03:00:19;15.65;;;4.00;;
19965;SDS011;10144;50.874;4.762;2023-08-08T03:02:45;20.25;;;4.10;;
19965;SDS011;10144;50.874;4.762;2023-08-08T03:05:10;15.93;;;4.07;;
19965;SDS011;10144;50.874;4.762;2023-08-08T03:07:36;10.45;;;3.70;;
19965;SDS011;10144;50.874;4.762;2023-08-08T03:10:02;16.63;;;4.05;;
19965;SDS011;10144;50.874;4.762;2023-08-08T03:12:29;17.77;;;4.68;;
19965;SDS011;10144;50.874;4.762;2023-08-08T03:14:55;19.92;;;4.22;;
19965;SDS011;10144;50.874;4.762;2023-08-08T03:17:21;19.48;;;4.10;;
19965;SDS011;10144;50.874;4.762;2023-08-08T03:19:47;15.68;;;3.72;;
19965;SDS011;10144;50.874;4.762;2023-08-08T03:22:13;19.38;;;4.13;;
19965;SDS011;10144;50.874;4.762;2023-08-08T03:24:39;19.70;;;3.85;;
19965;SDS011;10144;50.874;4.762;2023-08-08T03:27:05;17.17;;;3.97;;
19965;SDS011;10144;50.874;4.762;2023-08-08T03:29:31;14.40;;;3.97;;
19965;SDS011;10144;50.874;4.762;2023-08-08T03:31:57;17.98;;;4.20;;
19965;SDS011;10144;50.874;4.762;2023-08-08T03:34:23;15.80;;;4.03;;
19965;SDS011;10144;50.874;4.762;2023-08-08T03:36:49;14.88;;;4.10;;
19965;SDS011;10144;50.874;4.762;2023-08-08T03:39:15;15.50;;;4.20;;
19965;SDS011;10144;50.874;4.762;2023-08-08T03:41:41;16.63;;;4.10;;
19965;SDS011;10144;50.874;4.762;2023-08-08T03:44:07;17.08;;;4.07;;
19965;SDS011;10144;50.874;4.762;2023-08-08T03:46:33;20.40;;;4.25;;
19965;SDS011;10144;50.874;4.762;2023-08-08T03:48:59;14.68;;;4.82;;
19965;SDS011;10144;50.874;4.762;2023-08-08T03:51:25;23.50;;;4.20;;
19965;SDS011;10144;50.874;4.762;2023-08-08T03:53:51;18.35;;;4.65;;
19965;SDS011;10144;50.874;4.762;2023-08-08T03:56:17;16.17;;;4.28;;
19965;SDS011;10144;50.874;4.762;2023-08-08T03:58:43;11.82;;;4.28;;
19965;SDS011;10144;50.874;4.762;2023-08-08T04:01:12;21.10;;;4.25;;
19965;SDS011;10144;50.874;4.762;2023-08-08T04:03:38;19.42;;;4.72;;
19965;SDS011;10144;50.874;4.762;2023-08-08T04:06:04;18.10;;;4.40;;
19965;SDS011;10144;50.874;4.762;2023-08-08T04:08:30;23.58;;;4.97;;
19965;SDS011;10144;50.874;4.762;2023-08-08T04:10:56;25.17;;;4.90;;
19965;SDS011;10144;50.874;4.762;2023-08-08T04:13:22;20.58;;;5.22;;
19965;SDS011;10144;50.874;4.762;2023-08-08T04:15:49;22.15;;;5.03;;
19965;SDS011;10144;50.874;4.762;2023-08-08T04:18:18;15.10;;;4.70;;
19965;SDS011;10144;50.874;4.762;2023-08-08T04:20:48;26.02;;;5.70;;
19965;SDS011;10144;50.874;4.762;2023-08-08T04:23:14;18.80;;;5.28;;
19965;SDS011;10144;50.874;4.762;2023-08-08T04:25:41;24.00;;;5.95;;
19965;SDS011;10144;50.874;4.762;2023-08-08T04:28:06;19.33;;;5.53;;
19965;SDS011;10144;50.874;4.762;2023-08-08T04:33:01;17.80;;;5.65;;
19965;SDS011;10144;50.874;4.762;2023-08-08T04:35:29;25.13;;;5.75;;
19965;SDS011;10144;50.874;4.762;2023-08-08T04:38:00;26.65;;;5.72;;
19965;SDS011;10144;50.874;4.762;2023-08-08T04:40:26;23.67;;;6.10;;
19965;SDS011;10144;50.874;4.762;2023-08-08T04:42:52;18.95;;;5.60;;
19965;SDS011;10144;50.874;4.762;2023-08-08T04:50:15;17.20;;;5.05;;
19965;SDS011;10144;50.874;4.762;2023-08-08T04:52:42;24.25;;;5.43;;
19965;SDS011;10144;50.874;4.762;2023-08-08T04:55:08;18.38;;;5.20;;
19965;SDS011;10144;50.874;4.762;2023-08-08T04:57:34;17.20;;;5.30;;
19965;SDS011;10144;50.874;4.762;2023-08-08T05:00:00;15.63;;;5.10;;
19965;SDS011;10144;50.874;4.762;2023-08-08T05:02:31;19.17;;;5.22;;
19965;SDS011;10144;50.874;4.762;2023-08-08T05:04:57;14.95;;;5.00;;
19965;SDS011;10144;50.874;4.762;2023-08-08T05:07:26;18.92;;;5.20;;
19965;SDS011;10144;50.874;4.762;2023-08-08T05:09:53;20.77;;;5.43;;
19965;SDS011;10144;50.874;4.762;2023-08-08T05:12:18;20.63;;;5.18;;
19965;SDS011;10144;50.874;4.762;2023-08-08T05:14:46;19.95;;;5.13;;
19965;SDS011;10144;50.874;4.762;2023-08-08T05:17:12;19.23;;;4.85;;
19965;SDS011;10144;50.874;4.762;2023-08-08T05:19:39;21.60;;;4.32;;
19965;SDS011;10144;50.874;4.762;2023-08-08T05:22:10;15.70;;;4.10;;
19965;SDS011;10144;50.874;4.762;2023-08-08T05:24:38;15.50;;;3.83;;
19965;SDS011;10144;50.874;4.762;2023-08-08T05:27:06;12.48;;;3.38;;
19965;SDS011;10144;50.874;4.762;2023-08-08T05:29:31;14.50;;;3.55;;
19965;SDS011;10144;50.874;4.762;2023-08-08T05:32:00;14.70;;;3.75;;
19965;SDS011;10144;50.874;4.762;2023-08-08T05:34:29;13.93;;;3.20;;
19965;SDS011;10144;50.874;4.762;2023-08-08T05:36:57;12.18;;;3.47;;
19965;SDS011;10144;50.874;4.762;2023-08-08T05:39:22;15.18;;;3.28;;
19965;SDS011;10144;50.874;4.762;2023-08-08T05:41:50;13.73;;;3.40;;
19965;SDS011;10144;50.874;4.762;2023-08-08T05:44:17;15.18;;;3.03;;
19965;SDS011;10144;50.874;4.762;2023-08-08T05:46:45;13.93;;;3.08;;
19965;SDS011;10144;50.874;4.762;2023-08-08T05:51:40;7.97;;;2.67;;
19965;SDS011;10144;50.874;4.762;2023-08-08T05:54:11;13.63;;;4.07;;
19965;SDS011;10144;50.874;4.762;2023-08-08T05:56:37;10.13;;;3.10;;
19965;SDS011;10144;50.874;4.762;2023-08-08T05:59:11;12.15;;;3.03;;
19965;SDS011;10144;50.874;4.762;2023-08-08T06:01:37;11.50;;;2.70;;
19965;SDS011;10144;50.874;4.762;2023-08-08T06:04:08;12.48;;;2.80;;
19965;SDS011;10144;50.874;4.762;2023-08-08T06:06:34;12.63;;;2.72;;
19965;SDS011;10144;50.874;4.762;2023-08-08T06:09:01;16.20;;;2.70;;
19965;SDS011;10144;50.874;4.762;2023-08-08T06:11:27;13.85;;;2.75;;
19965;SDS011;10144;50.874;4.762;2023-08-08T06:16:23;12.30;;;2.70;;
19965;SDS011;10144;50.874;4.762;2023-08-08T06:18:51;11.13;;;2.50;;
19965;SDS011;10144;50.874;4.762;2023-08-08T06:21:20;11.75;;;2.55;;
19965;SDS011;10144;50.874;4.762;2023-08-08T06:23:46;15.00;;;3.08;;
19965;SDS011;10144;50.874;4.762;2023-08-08T06:26:12;12.70;;;3.20;;
19965;SDS011;10144;50.874;4.762;2023-08-08T06:28:40;13.82;;;2.90;;
19965;SDS011;10144;50.874;4.762;2023-08-08T06:31:05;13.75;;;3.15;;
19965;SDS011;10144;50.874;4.762;2023-08-08T06:33:31;13.23;;;2.90;;
19965;SDS011;10144;50.874;4.762;2023-08-08T06:35:56;15.48;;;3.10;;
19965;SDS011;10144;50.874;4.762;2023-08-08T06:38:22;15.50;;;2.70;;
19965;SDS011;10144;50.874;4.762;2023-08-08T06:40:48;12.55;;;2.75;;
19965;SDS011;10144;50.874;4.762;2023-08-08T06:43:14;11.82;;;2.70;;
19965;SDS011;10144;50.874;4.762;2023-08-08T06:45:40;10.20;;;2.38;;
19965;SDS011;10144;50.874;4.762;2023-08-08T06:48:06;15.82;;;2.67;;
19965;SDS011;10144;50.874;4.762;2023-08-08T06:50:33;9.32;;;2.58;;
19965;SDS011;10144;50.874;4.762;2023-08-08T06:52:58;9.95;;;2.72;;
19965;SDS011;10144;50.874;4.762;2023-08-08T06:55:24;9.45;;;2.40;;
19965;SDS011;10144;50.874;4.762;2023-08-08T06:57:49;11.35;;;2.35;;
19965;SDS011;10144;50.874;4.762;2023-08-08T07:00:15;8.95;;;2.50;;
19965;SDS011;10144;50.874;4.762;2023-08-08T07:02:41;10.73;;;2.55;;
19965;SDS011;10144;50.874;4.762;2023-08-08T07:05:07;7.72;;;2.40;;
19965;SDS011;10144;50.874;4.762;2023-08-08T07:07:34;15.63;;;3.13;;
19965;SDS011;10144;50.874;4.762;2023-08-08T07:10:00;8.73;;;2.33;;
19965;SDS011;10144;50.874;4.762;2023-08-08T07:12:26;7.97;;;2.53;;
19965;SDS011;10144;50.874;4.762;2023-08-08T07:14:51;9.70;;;2.45;;
19965;SDS011;10144;50.874;4.762;2023-08-08T07:17:17;11.30;;;2.60;;
19965;SDS011;10144;50.874;4.762;2023-08-08T07:19:43;13.63;;;2.53;;
19965;SDS011;10144;50.874;4.762;2023-08-08T07:22:08;12.70;;;2.40;;
19965;SDS011;10144;50.874;4.762;2023-08-08T07:24:34;7.03;;;2.25;;
19965;SDS011;10144;50.874;4.762;2023-08-08T07:27:00;10.07;;;2.53;;
19965;SDS011;10144;50.874;4.762;2023-08-08T07:29:25;6.85;;;1.92;;
19965;SDS011;10144;50.874;4.762;2023-08-08T07:31:52;10.13;;;2.38;;
19965;SDS011;10144;50.874;4.762;2023-08-08T07:34:18;11.48;;;2.78;;
19965;SDS011;10144;50.874;4.762;2023-08-08T07:36:44;8.65;;;2.30;;
19965;SDS011;10144;50.874;4.762;2023-08-08T07:39:10;12.18;;;2.30;;
19965;SDS011;10144;50.874;4.762;2023-08-08T07:41:36;10.70;;;2.70;;
19965;SDS011;10144;50.874;4.762;2023-08-08T07:44:02;8.45;;;2.08;;
19965;SDS011;10144;50.874;4.762;2023-08-08T07:46:28;14.32;;;2.42;;
19965;SDS011;10144;50.874;4.762;2023-08-08T07:48:53;7.93;;;2.70;;
19965;SDS011;10144;50.874;4.762;2023-08-08T07:51:19;13.00;;;2.83;;
19965;SDS011;10144;50.874;4.762;2023-08-08T07:53:45;13.95;;;2.72;;
19965;SDS011;10144;50.874;4.762;2023-08-08T07:56:10;10.30;;;2.55;;
19965;SDS011;10144;50.874;4.762;2023-08-08T07:58:36;10.15;;;2.60;;
19965;SDS011;10144;50.874;4.762;2023-08-08T08:01:02;11.18;;;2.50;;
19965;SDS011;10144;50.874;4.762;2023-08-08T08:03:28;18.75;;;3.30;;
19965;SDS011;10144;50.874;4.762;2023-08-08T08:05:53;9.63;;;2.90;;
19965;SDS011;10144;50.874;4.762;2023-08-08T08:08:19;9.02;;;2.47;;
19965;SDS011;10144;50.874;4.762;2023-08-08T08:10:46;11.88;;;3.00;;
19965;SDS011;10144;50.874;4.762;2023-08-08T08:13:13;10.43;;;3.17;;
19965;SDS011;10144;50.874;4.762;2023-08-08T08:15:39;11.00;;;2.78;;
19965;SDS011;10144;50.874;4.762;2023-08-08T08:18:05;9.48;;;2.85;;
19965;SDS011;10144;50.874;4.762;2023-08-08T08:20:30;10.07;;;3.10;;
19965;SDS011;10144;50.874;4.762;2023-08-08T08:22:56;12.13;;;2.88;;
19965;SDS011;10144;50.874;4.762;2023-08-08T08:25:22;8.30;;;2.97;;
19965;SDS011;10144;50.874;4.762;2023-08-08T08:27:47;10.30;;;2.90;;
19965;SDS011;10144;50.874;4.762;2023-08-08T08:30:13;13.50;;;3.78;;
19965;SDS011;10144;50.874;4.762;2023-08-08T08:32:39;14.43;;;3.08;;
19965;SDS011;10144;50.874;4.762;2023-08-08T08:35:07;14.35;;;3.50;;
19965;SDS011;10144;50.874;4.762;2023-08-08T08:37:33;11.38;;;3.33;;
19965;SDS011;10144;50.874;4.762;2023-08-08T08:39:59;8.32;;;3.38;;
19965;SDS011;10144;50.874;4.762;2023-08-08T08:42:28;12.35;;;3.78;;
19965;SDS011;10144;50.874;4.762;2023-08-08T08:44:57;8.05;;;2.97;;
19965;SDS011;10144;50.874;4.762;2023-08-08T08:47:24;11.18;;;3.13;;
19965;SDS011;10144;50.874;4.762;2023-08-08T08:49:51;13.80;;;3.70;;
19965;SDS011;10144;50.874;4.762;2023-08-08T08:52:17;11.95;;;3.03;;
19965;SDS011;10144;50.874;4.762;2023-08-08T08:54:43;9.27;;;2.95;;
19965;SDS011;10144;50.874;4.762;2023-08-08T08:57:09;9.85;;;2.90;;
19965;SDS011;10144;50.874;4.762;2023-08-08T08:59:35;10.23;;;2.88;;
19965;SDS011;10144;50.874;4.762;2023-08-08T09:02:00;15.05;;;2.90;;
19965;SDS011;10144;50.874;4.762;2023-08-08T09:04:28;12.18;;;2.92;;
19965;SDS011;10144;50.874;4.762;2023-08-08T09:06:54;11.18;;;2.80;;
19965;SDS011;10144;50.874;4.762;2023-08-08T09:09:20;13.48;;;3.15;;
19965;SDS011;10144;50.874;4.762;2023-08-08T09:11:48;10.20;;;2.65;;
19965;SDS011;10144;50.874;4.762;2023-08-08T09:14:19;11.07;;;3.00;;
19965;SDS011;10144;50.874;4.762;2023-08-08T09:16:49;10.63;;;2.88;;
19965;SDS011;10144;50.874;4.762;2023-08-08T09:19:16;8.25;;;2.55;;
19965;SDS011;10144;50.874;4.762;2023-08-08T09:21:45;8.02;;;2.60;;
19965;SDS011;10144;50.874;4.762;2023-08-08T09:24:12;11.80;;;2.97;;
19965;SDS011;10144;50.874;4.762;2023-08-08T09:26:38;7.53;;;2.35;;
19965;SDS011;10144;50.874;4.762;2023-08-08T09:29:05;11.48;;;3.15;;
19965;SDS011;10144;50.874;4.762;2023-08-08T09:31:31;7.32;;;2.33;;
19965;SDS011;10144;50.874;4.762;2023-08-08T09:33:59;8.38;;;2.40;;
19965;SDS011;10144;50.874;4.762;2023-08-08T09:36:26;9.23;;;2.70;;
19965;SDS011;10144;50.874;4.762;2023-08-08T09:38:54;13.88;;;2.42;;
19965;SDS011;10144;50.874;4.762;2023-08-08T09:41:23;9.23;;;2.45;;
19965;SDS011;10144;50.874;4.762;2023-08-08T09:43:51;11.43;;;2.47;;
19965;SDS011;10144;50.874;4.762;2023-08-08T09:46:20;9.27;;;2.55;;
19965;SDS011;10144;50.874;4.762;2023-08-08T09:48:46;10.93;;;2.35;;
19965;SDS011;10144;50.874;4.762;2023-08-08T09:51:13;11.55;;;2.63;;
19965;SDS011;10144;50.874;4.762;2023-08-08T09:53:39;6.30;;;2.05;;
19965;SDS011;10144;50.874;4.762;2023-08-08T09:56:06;6.75;;;2.30;;
19965;SDS011;10144;50.874;4.762;2023-08-08T09:58:32;7.60;;;2.10;;
19965;SDS011;10144;50.874;4.762;2023-08-08T10:00:58;6.40;;;2.20;;
19965;SDS011;10144;50.874;4.762;2023-08-08T10:03:24;7.30;;;2.30;;
19965;SDS011;10144;50.874;4.762;2023-08-08T10:05:51;8.57;;;2.70;;
19965;SDS011;10144;50.874;4.762;2023-08-08T10:08:17;6.22;;;2.40;;
19965;SDS011;10144;50.874;4.762;2023-08-08T10:10:44;9.20;;;2.25;;
19965;SDS011;10144;50.874;4.762;2023-08-08T10:13:21;6.13;;;2.70;;
19965;SDS011;10144;50.874;4.762;2023-08-08T10:15:48;5.15;;;2.30;;
19965;SDS011;10144;50.874;4.762;2023-08-08T10:18:14;9.82;;;2.55;;
19965;SDS011;10144;50.874;4.762;2023-08-08T10:20:46;8.63;;;2.70;;
19965;SDS011;10144;50.874;4.762;2023-08-08T10:23:14;5.15;;;2.15;;
19965;SDS011;10144;50.874;4.762;2023-08-08T10:25:44;11.57;;;2.50;;
19965;SDS011;10144;50.874;4.762;2023-08-08T10:28:11;11.95;;;2.60;;
19965;SDS011;10144;50.874;4.762;2023-08-08T10:30:42;5.18;;;2.60;;
19965;SDS011;10144;50.874;4.762;2023-08-08T10:33:15;11.25;;;2.70;;
19965;SDS011;10144;50.874;4.762;2023-08-08T10:35:54;9.60;;;2.53;;
19965;SDS011;10144;50.874;4.762;2023-08-08T10:38:47;10.18;;;2.30;;
19965;SDS011;10144;50.874;4.762;2023-08-08T10:41:19;7.07;;;2.28;;
19965;SDS011;10144;50.874;4.762;2023-08-08T10:46:28;7.78;;;2.20;;
19965;SDS011;10144;50.874;4.762;2023-08-08T10:48:59;10.68;;;2.40;;
19965;SDS011;10144;50.874;4.762;2023-08-08T10:52:02;7.45;;;2.20;;
19965;SDS011;10144;50.874;4.762;2023-08-08T10:54:19;10.73;;;2.25;;
19965;SDS011;10144;50.874;4.762;2023-08-08T10:56:53;8.98;;;2.70;;
19965;SDS011;10144;50.874;4.762;2023-08-08T10:59:21;10.48;;;2.25;;
19965;SDS011;10144;50.874;4.762;2023-08-08T11:01:49;11.43;;;2.67;;
19965;SDS011;10144;50.874;4.762;2023-08-08T11:04:20;7.15;;;2.78;;
19965;SDS011;10144;50.874;4.762;2023-08-08T11:06:52;7.57;;;1.98;;
19965;SDS011;10144;50.874;4.762;2023-08-08T11:09:19;9.23;;;2.58;;
19965;SDS011;10144;50.874;4.762;2023-08-08T11:11:45;9.13;;;2.35;;
19965;SDS011;10144;50.874;4.762;2023-08-08T11:14:15;6.18;;;2.20;;
19965;SDS011;10144;50.874;4.762;2023-08-08T11:16:43;6.45;;;2.25;;
19965;SDS011;10144;50.874;4.762;2023-08-08T11:19:09;6.25;;;2.30;;
19965;SDS011;10144;50.874;4.762;2023-08-08T11:21:37;8.07;;;2.53;;
19965;SDS011;10144;50.874;4.762;2023-08-08T11:24:07;9.55;;;2.47;;
19965;SDS011;10144;50.874;4.762;2023-08-08T11:26:33;6.75;;;2.30;;
19965;SDS011;10144;50.874;4.762;2023-08-08T11:29:00;7.22;;;1.92;;
19965;SDS011;10144;50.874;4.762;2023-08-08T11:31:27;5.03;;;2.13;;
19965;SDS011;10144;50.874;4.762;2023-08-08T11:33:54;7.68;;;2.25;;
19965;SDS011;10144;50.874;4.762;2023-08-08T11:36:20;6.68;;;2.00;;
19965;SDS011;10144;50.874;4.762;2023-08-08T11:38:47;8.13;;;2.35;;
19965;SDS011;10144;50.874;4.762;2023-08-08T11:41:15;6.95;;;2.25;;
19965;SDS011;10144;50.874;4.762;2023-08-08T11:43:42;5.57;;;2.08;;
19965;SDS011;10144;50.874;4.762;2023-08-08T11:46:09;7.30;;;1.95;;
19965;SDS011;10144;50.874;4.762;2023-08-08T11:48:39;4.78;;;1.63;;
19965;SDS011;10144;50.874;4.762;2023-08-08T11:51:05;6.45;;;1.90;;
19965;SDS011;10144;50.874;4.762;2023-08-08T11:53:32;6.97;;;1.67;;
19965;SDS011;10144;50.874;4.762;2023-08-08T11:55:59;3.72;;;1.55;;
19965;SDS011;10144;50.874;4.762;2023-08-08T11:58:25;4.55;;;1.58;;
19965;SDS011;10144;50.874;4.762;2023-08-08T12:00:51;5.82;;;1.50;;
19965;SDS011;10144;50.874;4.762;2023-08-08T12:03:19;5.20;;;1.65;;
19965;SDS011;10144;50.874;4.762;2023-08-08T12:05:45;4.70;;;1.70;;
19965;SDS011;10144;50.874;4.762;2023-08-08T12:08:12;5.70;;;1.67;;
19965;SDS011;10144;50.874;4.762;2023-08-08T12:10:38;4.38;;;1.70;;
19965;SDS011;10144;50.874;4.762;2023-08-08T12:13:04;4.20;;;1.48;;
19965;SDS011;10144;50.874;4.762;2023-08-08T12:17:58;3.65;;;1.50;;
19965;SDS011;10144;50.874;4.762;2023-08-08T12:20:26;4.43;;;1.40;;
19965;SDS011;10144;50.874;4.762;2023-08-08T12:22:56;4.90;;;1.50;;
19965;SDS011;10144;50.874;4.762;2023-08-08T12:25:24;6.03;;;1.60;;
19965;SDS011;10144;50.874;4.762;2023-08-08T12:27:50;5.50;;;1.40;;
19965;SDS011;10144;50.874;4.762;2023-08-08T12:30:16;3.90;;;1.38;;
19965;SDS011;10144;50.874;4.762;2023-08-08T12:32:41;6.32;;;1.52;;
19965;SDS011;10144;50.874;4.762;2023-08-08T12:35:07;2.65;;;1.20;;
19965;SDS011;10144;50.874;4.762;2023-08-08T12:37:33;3.58;;;1.42;;
19965;SDS011;10144;50.874;4.762;2023-08-08T12:39:59;3.33;;;1.50;;
19965;SDS011;10144;50.874;4.762;2023-08-08T12:42:24;5.07;;;1.42;;
19965;SDS011;10144;50.874;4.762;2023-08-08T12:44:50;5.07;;;1.70;;
19965;SDS011;10144;50.874;4.762;2023-08-08T12:47:19;3.05;;;1.20;;
19965;SDS011;10144;50.874;4.762;2023-08-08T12:49:45;3.15;;;1.50;;
19965;SDS011;10144;50.874;4.762;2023-08-08T12:52:12;3.75;;;1.50;;
19965;SDS011;10144;50.874;4.762;2023-08-08T12:54:38;4.95;;;1.58;;
19965;SDS011;10144;50.874;4.762;2023-08-08T12:57:03;4.57;;;1.65;;
19965;SDS011;10144;50.874;4.762;2023-08-08T12:59:29;4.05;;;1.30;;
19965;SDS011;10144;50.874;4.762;2023-08-08T13:01:55;6.80;;;1.88;;
19965;SDS011;10144;50.874;4.762;2023-08-08T13:04:21;7.28;;;1.75;;
19965;SDS011;10144;50.874;4.762;2023-08-08T13:06:47;3.75;;;1.60;;
19965;SDS011;10144;50.874;4.762;2023-08-08T13:09:13;4.72;;;1.60;;
19965;SDS011;10144;50.874;4.762;2023-08-08T13:11:40;5.00;;;1.60;;
19965;SDS011;10144;50.874;4.762;2023-08-08T13:14:06;4.85;;;1.70;;
19965;SDS011;10144;50.874;4.762;2023-08-08T13:16:33;4.00;;;1.50;;
19965;SDS011;10144;50.874;4.762;2023-08-08T13:18:58;4.82;;;1.70;;
19965;SDS011;10144;50.874;4.762;2023-08-08T13:21:24;4.18;;;1.52;;
19965;SDS011;10144;50.874;4.762;2023-08-08T13:23:50;9.82;;;1.80;;
19965;SDS011;10144;50.874;4.762;2023-08-08T13:26:15;7.60;;;1.92;;
19965;SDS011;10144;50.874;4.762;2023-08-08T13:28:41;4.00;;;1.60;;
19965;SDS011;10144;50.874;4.762;2023-08-08T13:31:07;5.75;;;1.52;;
19965;SDS011;10144;50.874;4.762;2023-08-08T13:33:33;6.53;;;1.70;;
19965;SDS011;10144;50.874;4.762;2023-08-08T13:36:00;5.40;;;1.88;;
19965;SDS011;10144;50.874;4.762;2023-08-08T13:38:26;4.18;;;1.70;;
19965;SDS011;10144;50.874;4.762;2023-08-08T13:40:51;6.78;;;1.63;;
19965;SDS011;10144;50.874;4.762;2023-08-08T13:43:18;4.95;;;1.40;;
19965;SDS011;10144;50.874;4.762;2023-08-08T13:45:44;3.42;;;1.60;;
19965;SDS011;10144;50.874;4.762;2023-08-08T13:48:09;6.28;;;1.80;;
19965;SDS011;10144;50.874;4.762;2023-08-08T13:50:35;4.65;;;2.50;;
19965;SDS011;10144;50.874;4.762;2023-08-08T13:53:01;4.90;;;1.80;;
19965;SDS011;10144;50.874;4.762;2023-08-08T13:55:26;4.65;;;1.35;;
19965;SDS011;10144;50.874;4.762;2023-08-08T13:57:52;3.28;;;1.40;;
19965;SDS011;10144;50.874;4.762;2023-08-08T14:00:20;4.30;;;1.48;;
19965;SDS011;10144;50.874;4.762;2023-08-08T14:02:46;3.50;;;1.40;;
19965;SDS011;10144;50.874;4.762;2023-08-08T14:05:12;2.17;;;1.30;;
19965;SDS011;10144;50.874;4.762;2023-08-08T14:07:38;3.33;;;1.40;;
19965;SDS011;10144;50.874;4.762;2023-08-08T14:10:04;3.83;;;1.30;;
19965;SDS011;10144;50.874;4.762;2023-08-08T14:12:31;2.33;;;1.40;;
19965;SDS011;10144;50.874;4.762;2023-08-08T14:14:56;5.75;;;1.40;;
19965;SDS011;10144;50.874;4.762;2023-08-08T14:17:22;2.45;;;1.40;;
19965;SDS011;10144;50.874;4.762;2023-08-08T14:19:48;4.53;;;1.50;;
19965;SDS011;10144;50.874;4.762;2023-08-08T14:22:13;3.05;;;1.52;;
19965;SDS011;10144;50.874;4.762;2023-08-08T14:24:39;7.90;;;1.67;;
19965;SDS011;10144;50.874;4.762;2023-08-08T14:27:06;5.43;;;1.75;;
19965;SDS011;10144;50.874;4.762;2023-08-08T14:29:32;3.95;;;1.45;;
19965;SDS011;10144;50.874;4.762;2023-08-08T14:31:58;2.53;;;1.27;;
19965;SDS011;10144;50.874;4.762;2023-08-08T14:34:33;5.13;;;1.63;;
19965;SDS011;10144;50.874;4.762;2023-08-08T14:36:59;6.00;;;1.52;;
19965;SDS011;10144;50.874;4.762;2023-08-08T14:39:26;4.10;;;1.42;;
19965;SDS011;10144;50.874;4.762;2023-08-08T14:41:52;2.70;;;1.23;;
19965;SDS011;10144;50.874;4.762;2023-08-08T14:44:18;4.05;;;1.60;;
19965;SDS011;10144;50.874;4.762;2023-08-08T14:46:43;4.50;;;1.50;;
19965;SDS011;10144;50.874;4.762;2023-08-08T14:49:09;4.82;;;1.40;;
19965;SDS011;10144;50.874;4.762;2023-08-08T14:51:35;4.22;;;1.30;;
19965;SDS011;10144;50.874;4.762;2023-08-08T14:54:01;3.85;;;1.63;;
19965;SDS011;10144;50.874;4.762;2023-08-08T14:56:27;3.88;;;1.50;;
19965;SDS011;10144;50.874;4.762;2023-08-08T14:58:53;3.90;;;1.80;;
19965;SDS011;10144;50.874;4.762;2023-08-08T15:01:20;2.80;;;1.30;;
19965;SDS011;10144;50.874;4.762;2023-08-08T15:03:46;4.90;;;1.45;;
19965;SDS011;10144;50.874;4.762;2023-08-08T15:06:11;6.03;;;1.90;;
19965;SDS011;10144;50.874;4.762;2023-08-08T15:08:37;4.35;;;1.50;;
19965;SDS011;10144;50.874;4.762;2023-08-08T15:11:03;3.10;;;1.20;;